createdAt,value
2019-04-04T00:00:59.047Z,12.54
2019-04-04T00:01:59.053Z,12.57
2019-04-04T00:02:59.022Z,12.52
2019-04-04T00:03:59.031Z,12.52
2019-04-04T00:05:00.293Z,12.47
2019-04-04T00:06:01.263Z,12.49
2019-04-04T00:07:01.012Z,12.49
2019-04-04T00:08:02.193Z,12.46
2019-04-04T00:09:00.057Z,12.47
2019-04-04T00:09:58.980Z,12.49
2019-04-04T00:10:58.940Z,12.41
2019-04-04T00:11:58.945Z,12.5
2019-04-04T00:12:58.935Z,12.56
2019-04-04T00:13:58.945Z,12.46
2019-04-04T00:14:58.906Z,12.49
2019-04-04T00:15:58.925Z,12.52
2019-04-04T00:16:58.933Z,12.39
2019-04-04T00:17:59.165Z,12.41
2019-04-04T00:19:01.115Z,12.47
2019-04-04T00:20:00.761Z,12.39
2019-04-04T00:20:58.854Z,12.39
2019-04-04T00:21:58.874Z,12.34
2019-04-04T00:22:58.841Z,12.27
2019-04-04T00:23:58.855Z,12.41
2019-04-04T00:24:58.834Z,12.28
2019-04-04T00:25:58.836Z,12.29
2019-04-04T00:26:58.795Z,12.27
2019-04-04T00:27:58.801Z,12.27
2019-04-04T00:29:01.228Z,12.34
2019-04-04T00:29:58.805Z,12.29
2019-04-04T00:30:58.796Z,12.24
2019-04-04T00:31:58.757Z,12.16
2019-04-04T00:32:58.755Z,12.12
2019-04-04T00:34:01.137Z,12.23
2019-04-04T00:35:01.921Z,12.21
2019-04-04T00:35:58.722Z,12.16
2019-04-04T00:36:58.740Z,12.21
2019-04-04T00:37:58.697Z,12.2
2019-04-04T00:38:58.721Z,12.14
2019-04-04T00:39:58.683Z,12.12
2019-04-04T00:40:58.705Z,12.13
2019-04-04T00:41:58.698Z,12.17
2019-04-04T00:42:58.650Z,12.07
2019-04-04T00:43:58.650Z,12.05
2019-04-04T00:45:01.009Z,12.13
2019-04-04T00:46:00.440Z,12.14
2019-04-04T00:47:01.479Z,12.02
2019-04-04T00:47:58.611Z,12.02
2019-04-04T00:48:58.610Z,12.07
2019-04-04T00:49:58.598Z,12.05
2019-04-04T00:50:58.628Z,12.01
2019-04-04T00:51:58.571Z,12.01
2019-04-04T00:52:58.596Z,11.95
2019-04-04T00:53:58.555Z,11.91
2019-04-04T00:54:58.571Z,11.99
2019-04-04T00:55:58.543Z,11.96
2019-04-04T00:56:58.541Z,11.88
2019-04-04T00:57:58.518Z,11.83
2019-04-04T00:58:58.535Z,11.88
2019-04-04T00:59:58.783Z,11.9
2019-04-04T01:01:00.176Z,11.88
2019-04-04T01:02:01.596Z,11.79
2019-04-04T01:03:00.932Z,11.83
2019-04-04T01:04:00.238Z,11.86
2019-04-04T01:05:01.233Z,11.79
2019-04-04T01:05:58.197Z,11.78
2019-04-04T01:06:58.463Z,11.75
2019-04-04T01:07:58.432Z,11.72
2019-04-04T01:08:58.449Z,11.72
2019-04-04T01:09:58.412Z,11.72
2019-04-04T01:10:58.428Z,11.67
2019-04-04T01:11:58.420Z,11.69
2019-04-04T01:12:58.399Z,11.58
2019-04-04T01:14:00.169Z,11.51
2019-04-04T01:15:00.079Z,11.55
2019-04-04T01:15:58.383Z,11.62
2019-04-04T01:16:58.356Z,11.49
2019-04-04T01:17:58.329Z,11.6
2019-04-04T01:18:58.354Z,11.57
2019-04-04T01:19:58.315Z,11.44
2019-04-04T01:20:58.314Z,11.49
2019-04-04T01:21:58.702Z,11.54
2019-04-04T01:23:00.642Z,11.51
2019-04-04T01:24:00.638Z,11.49
2019-04-04T01:24:58.990Z,11.44
2019-04-04T01:25:58.254Z,11.47
2019-04-04T01:26:58.029Z,11.4
2019-04-04T01:27:58.250Z,11.33
2019-04-04T01:28:58.244Z,11.4
2019-04-04T01:29:58.215Z,11.22
2019-04-04T01:30:58.237Z,11.24
2019-04-04T01:31:58.200Z,11.27
2019-04-04T01:32:58.204Z,11.25
2019-04-04T01:33:58.216Z,11.25
2019-04-04T01:34:58.203Z,11.27
2019-04-04T01:35:59.280Z,11.27
2019-04-04T01:37:00.963Z,11.24
2019-04-04T01:38:00.350Z,11.28
2019-04-04T01:39:00.116Z,11.24
2019-04-04T01:39:59.866Z,11.24
2019-04-04T01:40:59.809Z,11.28
2019-04-04T01:41:58.103Z,11.27
2019-04-04T01:42:58.126Z,11.27
2019-04-04T01:44:13.436Z,11.21
2019-04-04T01:44:58.090Z,11.22
2019-04-04T01:45:58.086Z,11.17
2019-04-04T01:46:58.083Z,11.25
2019-04-04T01:47:58.070Z,11.18
2019-04-04T01:48:58.055Z,11.22
2019-04-04T01:49:58.023Z,11.11
2019-04-04T01:50:58.933Z,11.11
2019-04-04T01:52:01.655Z,11.11
2019-04-04T01:53:01.467Z,11.07
2019-04-04T01:53:58.986Z,11.07
2019-04-04T01:54:57.733Z,11.04
2019-04-04T01:55:57.991Z,11.09
2019-04-04T01:56:57.978Z,11.03
2019-04-04T01:57:57.948Z,11.07
2019-04-04T01:58:57.968Z,11.04
2019-04-04T01:59:57.924Z,11.06
2019-04-04T02:00:57.934Z,11.07
2019-04-04T02:01:57.903Z,11.07
2019-04-04T02:02:57.950Z,11.02
2019-04-04T02:03:58.447Z,10.91
2019-04-04T02:05:00.492Z,10.92
2019-04-04T02:06:00.391Z,10.88
2019-04-04T02:07:01.402Z,10.85
2019-04-04T02:07:58.849Z,10.88
2019-04-04T02:08:57.860Z,10.91
2019-04-04T02:09:57.862Z,10.89
2019-04-04T02:10:57.815Z,10.76
2019-04-04T02:11:57.848Z,10.73
2019-04-04T02:12:57.798Z,10.7
2019-04-04T02:13:57.868Z,10.73
2019-04-04T02:14:57.779Z,10.78
2019-04-04T02:15:57.799Z,10.61
2019-04-04T02:16:57.775Z,10.71
2019-04-04T02:17:58.269Z,10.66
2019-04-04T02:18:59.020Z,10.61
2019-04-04T02:20:00.484Z,10.67
2019-04-04T02:21:00.148Z,10.66
2019-04-04T02:21:57.813Z,10.67
2019-04-04T02:22:57.695Z,10.64
2019-04-04T02:23:57.716Z,10.68
2019-04-04T02:24:57.694Z,10.67
2019-04-04T02:25:57.723Z,10.67
2019-04-04T02:26:57.657Z,10.67
2019-04-04T02:27:57.673Z,10.66
2019-04-04T02:28:57.637Z,10.55
2019-04-04T02:29:57.660Z,10.56
2019-04-04T02:30:57.624Z,10.53
2019-04-04T02:31:59.144Z,10.61
2019-04-04T02:33:01.966Z,10.55
2019-04-04T02:33:57.644Z,10.42
2019-04-04T02:34:57.579Z,10.45
2019-04-04T02:35:57.573Z,10.48
2019-04-04T02:36:57.581Z,10.3
2019-04-04T02:38:00.135Z,10.33
2019-04-04T02:39:02.118Z,10.22
2019-04-04T02:39:57.540Z,10.26
2019-04-04T02:40:57.595Z,10.15
2019-04-04T02:41:57.517Z,10.22
2019-04-04T02:43:00.129Z,10.11
2019-04-04T02:43:59.304Z,10.09
2019-04-04T02:44:57.526Z,10.02
2019-04-04T02:45:57.470Z,9.97
2019-04-04T02:46:57.498Z,9.9
2019-04-04T02:47:57.489Z,10.04
2019-04-04T02:49:00.768Z,9.84
2019-04-04T02:50:00.544Z,9.9
2019-04-04T02:50:57.444Z,9.87
2019-04-04T02:51:57.416Z,9.87
2019-04-04T02:52:57.411Z,9.83
2019-04-04T02:53:57.960Z,9.86
2019-04-04T02:55:02.160Z,9.87
2019-04-04T02:55:59.594Z,9.94
2019-04-04T02:56:57.370Z,10.01
2019-04-04T02:57:57.352Z,9.86
2019-04-04T02:58:57.387Z,9.99
2019-04-04T02:59:58.869Z,10.04
2019-04-04T03:01:01.868Z,9.99
2019-04-04T03:01:57.331Z,10.02
2019-04-04T03:02:57.292Z,9.99
2019-04-04T03:03:57.338Z,9.91
2019-04-04T03:04:57.282Z,9.84
2019-04-04T03:05:57.297Z,9.86
2019-04-04T03:07:02.251Z,9.86
2019-04-04T03:07:57.250Z,9.83
2019-04-04T03:08:57.313Z,9.78
2019-04-04T03:09:57.265Z,9.78
2019-04-04T03:10:57.239Z,9.68
2019-04-04T03:11:59.376Z,9.76
2019-04-04T03:13:00.761Z,9.65
2019-04-04T03:13:57.229Z,9.69
2019-04-04T03:14:57.190Z,9.69
2019-04-04T03:15:57.199Z,9.68
2019-04-04T03:17:01.429Z,9.65
2019-04-04T03:17:57.177Z,9.66
2019-04-04T03:18:57.138Z,9.56
2019-04-04T03:19:56.902Z,9.68
2019-04-04T03:20:57.134Z,9.68
2019-04-04T03:21:59.920Z,9.6
2019-04-04T03:23:00.031Z,9.65
2019-04-04T03:23:57.109Z,9.65
2019-04-04T03:24:56.827Z,9.61
2019-04-04T03:25:57.144Z,9.57
2019-04-04T03:26:58.244Z,9.58
2019-04-04T03:28:00.375Z,9.42
2019-04-04T03:28:57.039Z,9.53
2019-04-04T03:29:57.030Z,9.47
2019-04-04T03:31:06.805Z,9.51
2019-04-04T03:31:57.032Z,9.48
2019-04-04T03:32:59.539Z,9.4
2019-04-04T03:33:56.987Z,9.46
2019-04-04T03:34:56.996Z,9.47
2019-04-04T03:35:57.527Z,9.5
2019-04-04T03:36:56.949Z,9.38
2019-04-04T03:37:56.924Z,9.36
2019-04-04T03:38:56.947Z,9.43
2019-04-04T03:39:58.239Z,9.38
2019-04-04T03:40:59.989Z,9.46
2019-04-04T03:41:56.968Z,9.36
2019-04-04T03:42:56.909Z,9.36
2019-04-04T03:43:56.899Z,9.42
2019-04-04T03:44:58.918Z,9.43
2019-04-04T03:46:00.113Z,9.4
2019-04-04T03:46:56.859Z,9.43
2019-04-04T03:47:56.811Z,9.4
2019-04-04T03:48:56.832Z,9.33
2019-04-04T03:50:01.403Z,9.32
2019-04-04T03:51:03.358Z,9.36
2019-04-04T03:51:56.763Z,9.32
2019-04-04T03:52:56.791Z,9.29
2019-04-04T03:53:56.752Z,9.33
2019-04-04T03:55:00.181Z,9.33
2019-04-04T03:55:59.910Z,9.31
2019-04-04T03:56:56.727Z,9.29
2019-04-04T03:57:59.909Z,9.33
2019-04-04T03:58:59.679Z,9.31
2019-04-04T03:59:56.703Z,9.23
2019-04-04T04:00:56.688Z,9.26
2019-04-04T04:01:56.690Z,9.28
2019-04-04T04:02:56.755Z,9.26
2019-04-04T04:03:59.627Z,9.33
2019-04-04T04:05:00.281Z,9.32
2019-04-04T04:05:56.621Z,9.29
2019-04-04T04:06:56.630Z,9.29
2019-04-04T04:07:56.360Z,9.31
2019-04-04T04:08:59.663Z,9.29
2019-04-04T04:09:59.611Z,9.28
2019-04-04T04:10:56.608Z,9.28
2019-04-04T04:11:56.574Z,9.28
2019-04-04T04:12:56.560Z,9.17
2019-04-04T04:13:56.533Z,9.18
2019-04-04T04:14:59.740Z,9.18
2019-04-04T04:15:56.528Z,9.13
2019-04-04T04:16:56.509Z,9.15
2019-04-04T04:17:56.518Z,9.15
2019-04-04T04:18:59.958Z,9.18
2019-04-04T04:19:56.480Z,9.23
2019-04-04T04:20:56.447Z,9.15
2019-04-04T04:21:56.476Z,9.2
2019-04-04T04:22:56.471Z,9.15
2019-04-04T04:24:01.279Z,9.2
2019-04-04T04:24:56.413Z,9.21
2019-04-04T04:25:56.423Z,9.21
2019-04-04T04:26:56.375Z,9.15
2019-04-04T04:27:56.385Z,9.21
2019-04-04T04:28:58.142Z,9.2
2019-04-04T04:29:56.381Z,9.15
2019-04-04T04:30:56.339Z,9.2
2019-04-04T04:31:56.358Z,9.14
2019-04-04T04:33:00.810Z,9.2
2019-04-04T04:34:00.434Z,9.11
2019-04-04T04:34:56.332Z,9.18
2019-04-04T04:35:56.310Z,9.17
2019-04-04T04:36:56.266Z,9.18
2019-04-04T04:37:58.392Z,9.23
2019-04-04T04:39:01.413Z,9.13
2019-04-04T04:39:56.287Z,9.18
2019-04-04T04:40:56.237Z,9.18
2019-04-04T04:41:59.105Z,9.18
2019-04-04T04:42:59.611Z,9.14
2019-04-04T04:43:56.198Z,9.2
2019-04-04T04:44:56.198Z,9.23
2019-04-04T04:45:56.208Z,9.21
2019-04-04T04:46:56.203Z,9.24
2019-04-04T04:48:00.943Z,9.15
2019-04-04T04:48:56.154Z,9.21
2019-04-04T04:49:57.973Z,9.17
2019-04-04T04:50:56.172Z,9.26
2019-04-04T04:51:56.138Z,9.31
2019-04-04T04:52:56.136Z,9.35
2019-04-04T04:53:56.165Z,9.29
2019-04-04T04:54:59.111Z,9.33
2019-04-04T04:55:59.372Z,9.33
2019-04-04T04:56:56.060Z,9.39
2019-04-04T04:57:58.778Z,9.38
2019-04-04T04:58:58.090Z,9.46
2019-04-04T04:59:56.014Z,9.48
2019-04-04T05:00:56.176Z,9.47
2019-04-04T05:01:56.158Z,9.58
2019-04-04T05:02:58.494Z,9.64
2019-04-04T05:03:58.584Z,9.68
2019-04-04T05:04:57.229Z,9.79
2019-04-04T05:05:55.951Z,9.9
2019-04-04T05:06:55.976Z,10.01
2019-04-04T05:07:57.471Z,9.96
2019-04-04T05:08:55.948Z,10.14
2019-04-04T05:09:55.905Z,10.26
2019-04-04T05:10:55.923Z,10.32
2019-04-04T05:11:55.908Z,10.44
2019-04-04T05:12:58.361Z,10.52
2019-04-04T05:13:56.017Z,10.66
2019-04-04T05:14:55.884Z,10.81
2019-04-04T05:15:55.872Z,10.85
2019-04-04T05:16:55.852Z,11.06
2019-04-04T05:17:55.830Z,11.22
2019-04-04T05:18:55.822Z,11.37
2019-04-04T05:19:55.844Z,11.44
2019-04-04T05:20:57.324Z,11.54
2019-04-04T05:21:55.799Z,11.75
2019-04-04T05:22:55.821Z,11.85
2019-04-04T05:23:55.793Z,12.04
2019-04-04T05:25:12.255Z,12.14
2019-04-04T05:26:02.070Z,12.2
2019-04-04T05:26:55.800Z,12.32
2019-04-04T05:27:55.764Z,12.47
2019-04-04T05:28:57.063Z,12.56
2019-04-04T05:29:55.721Z,12.72
2019-04-04T05:30:55.759Z,12.9
2019-04-04T05:31:55.755Z,12.92
2019-04-04T05:32:59.329Z,13.03
2019-04-04T05:33:58.686Z,13.17
2019-04-04T05:34:55.682Z,13.19
2019-04-04T05:35:55.701Z,13.36
2019-04-04T05:36:55.697Z,13.57
2019-04-04T05:37:55.701Z,13.55
2019-04-04T05:38:55.673Z,13.77
2019-04-04T05:39:57.829Z,13.84
2019-04-04T05:40:58.339Z,14.06
2019-04-04T05:41:55.665Z,14.09
2019-04-04T05:42:55.714Z,14.24
2019-04-04T05:43:55.692Z,14.25
2019-04-04T05:44:55.663Z,14.45
2019-04-04T05:45:55.650Z,14.58
2019-04-04T05:46:56.774Z,14.77
2019-04-04T05:47:59.815Z,14.92
2019-04-04T05:48:55.619Z,14.96
2019-04-04T05:49:55.629Z,15.02
2019-04-04T05:50:55.596Z,15.11
2019-04-04T05:51:55.622Z,15.2
2019-04-04T05:52:55.589Z,15.23
2019-04-04T05:53:55.595Z,15.38
2019-04-04T05:54:55.564Z,15.41
2019-04-04T05:55:55.650Z,15.5
2019-04-04T05:56:55.546Z,15.75
2019-04-04T05:57:56.347Z,15.89
2019-04-04T05:58:57.658Z,16.09
2019-04-04T05:59:58.484Z,16.28
2019-04-04T06:00:57.665Z,16.31
2019-04-04T06:01:55.589Z,16.53
2019-04-04T06:02:55.549Z,16.58
2019-04-04T06:03:55.598Z,16.57
2019-04-04T06:04:59.858Z,16.7
2019-04-04T06:05:55.568Z,16.7
2019-04-04T06:06:58.099Z,16.83
2019-04-04T06:07:55.269Z,16.91
2019-04-04T06:08:55.764Z,17.06
2019-04-04T06:09:55.514Z,17.23
2019-04-04T06:10:55.678Z,17.25
2019-04-04T06:11:57.691Z,17.41
2019-04-04T06:12:58.451Z,17.48
2019-04-04T06:13:56.984Z,17.64
2019-04-04T06:14:55.479Z,17.78
2019-04-04T06:15:55.515Z,17.87
2019-04-04T06:16:55.486Z,18.02
2019-04-04T06:17:55.507Z,17.99
2019-04-04T06:18:55.482Z,18.1
2019-04-04T06:19:55.470Z,18.2
2019-04-04T06:20:55.478Z,18.29
2019-04-04T06:21:55.497Z,18.33
2019-04-04T06:22:56.845Z,18.51
2019-04-04T06:23:58.221Z,18.69
2019-04-04T06:24:59.255Z,18.87
2019-04-04T06:25:55.497Z,19.08
2019-04-04T06:26:55.454Z,19.29
2019-04-04T06:27:55.476Z,19.47
2019-04-04T06:28:55.451Z,19.56
2019-04-04T06:29:55.483Z,19.68
2019-04-04T06:31:00.706Z,19.81
2019-04-04T06:31:55.481Z,20.06
2019-04-04T06:32:55.459Z,20.11
2019-04-04T06:33:55.478Z,20.29
2019-04-04T06:34:56.742Z,20.32
2019-04-04T06:35:55.446Z,20.39
2019-04-04T06:36:55.458Z,20.43
2019-04-04T06:37:56.728Z,20.52
2019-04-04T06:38:58.542Z,20.69
2019-04-04T06:39:58.768Z,20.84
2019-04-04T06:40:55.468Z,20.92
2019-04-04T06:41:55.482Z,21.04
2019-04-04T06:42:55.467Z,21.06
2019-04-04T06:43:55.525Z,21.14
2019-04-04T06:44:56.789Z,21.16
2019-04-04T06:45:55.483Z,21.1
2019-04-04T06:46:58.073Z,21.21
2019-04-04T06:47:57.459Z,21.32
2019-04-04T06:48:55.463Z,21.52
2019-04-04T06:49:55.488Z,21.44
2019-04-04T06:50:55.455Z,21.54
2019-04-04T06:51:55.457Z,21.58
2019-04-04T06:52:58.880Z,21.56
2019-04-04T06:53:59.573Z,21.64
2019-04-04T06:54:57.331Z,21.68
2019-04-04T06:55:55.470Z,21.77
2019-04-04T06:56:55.478Z,21.79
2019-04-04T06:57:56.205Z,21.86
2019-04-04T06:58:55.504Z,21.83
2019-04-04T06:59:56.075Z,21.86
2019-04-04T07:00:55.575Z,21.88
2019-04-04T07:01:56.800Z,21.75
2019-04-04T07:02:58.372Z,21.67
2019-04-04T07:03:59.399Z,21.67
2019-04-04T07:04:55.506Z,21.69
2019-04-04T07:05:55.516Z,21.82
2019-04-04T07:06:55.486Z,21.71
2019-04-04T07:07:55.493Z,21.65
2019-04-04T07:08:55.508Z,21.61
2019-04-04T07:09:55.803Z,21.62
2019-04-04T07:11:11.203Z,21.74
2019-04-04T07:11:55.505Z,21.83
2019-04-04T07:13:21.845Z,22
2019-04-04T07:13:56.967Z,22.12
2019-04-04T07:14:55.552Z,22.1
2019-04-04T07:16:11.001Z,22.18
2019-04-04T07:16:55.657Z,22.21
2019-04-04T07:17:55.524Z,22.22
2019-04-04T07:18:55.557Z,22.25
2019-04-04T07:19:55.541Z,22.39
2019-04-04T07:20:55.552Z,22.25
2019-04-04T07:21:56.636Z,22.33
2019-04-04T07:22:58.241Z,22.45
2019-04-04T07:23:58.891Z,22.51
2019-04-04T07:24:55.569Z,22.46
2019-04-04T07:25:58.236Z,22.37
2019-04-04T07:26:55.581Z,22.47
2019-04-04T07:27:55.644Z,22.49
2019-04-04T07:28:58.732Z,22.52
2019-04-04T07:29:59.129Z,22.62
2019-04-04T07:30:57.190Z,22.62
2019-04-04T07:31:55.584Z,22.73
2019-04-04T07:32:55.831Z,22.88
2019-04-04T07:33:55.586Z,23
2019-04-04T07:34:55.623Z,23.07
2019-04-04T07:35:55.602Z,23.17
2019-04-04T07:36:56.478Z,23.27
2019-04-04T07:37:59.999Z,23.32
2019-04-04T07:38:55.653Z,23.39
2019-04-04T07:39:55.649Z,23.48
2019-04-04T07:40:55.645Z,23.39
2019-04-04T07:41:55.636Z,23.25
2019-04-04T07:42:55.656Z,23.16
2019-04-04T07:43:58.565Z,23.01
2019-04-04T07:44:57.419Z,23.09
2019-04-04T07:46:10.329Z,23.13
2019-04-04T07:46:55.669Z,23.22
2019-04-04T07:47:56.966Z,23.22
2019-04-04T07:48:57.025Z,23.31
2019-04-04T07:49:57.776Z,23.39
2019-04-04T07:50:58.464Z,23.48
2019-04-04T07:51:55.744Z,23.58
2019-04-04T07:52:55.735Z,23.58
2019-04-04T07:53:55.735Z,23.68
2019-04-04T07:54:55.716Z,23.73
2019-04-04T07:55:55.759Z,23.68
2019-04-04T07:56:55.736Z,23.65
2019-04-04T07:57:56.402Z,23.6
2019-04-04T07:58:55.514Z,23.43
2019-04-04T07:59:55.779Z,23.32
2019-04-04T08:00:55.760Z,23.27
2019-04-04T08:01:56.438Z,23.2
2019-04-04T08:03:55.768Z,23.02
2019-04-04T08:04:55.801Z,23.05
2019-04-04T08:05:55.786Z,22.95
2019-04-04T08:06:55.818Z,22.92
2019-04-04T08:07:55.792Z,22.9
2019-04-04T08:08:55.824Z,22.8
2019-04-04T08:09:55.818Z,22.67
2019-04-04T08:10:55.807Z,22.52
2019-04-04T08:11:55.840Z,22.21
2019-04-04T08:12:55.841Z,22.15
2019-04-04T08:13:55.833Z,22.06
2019-04-04T08:14:55.584Z,22.06
2019-04-04T08:15:55.843Z,21.94
2019-04-04T08:16:55.864Z,21.82
2019-04-04T08:17:55.854Z,21.69
2019-04-04T08:18:55.872Z,21.56
2019-04-04T08:20:04.659Z,21.35
2019-04-04T08:20:55.871Z,21.22
2019-04-04T08:21:55.865Z,21.12
2019-04-04T08:22:55.855Z,20.89
2019-04-04T08:23:55.894Z,20.8
2019-04-04T08:24:55.861Z,20.73
2019-04-04T08:25:55.885Z,20.57
2019-04-04T08:26:55.879Z,20.33
2019-04-04T08:27:55.893Z,20.28
2019-04-04T08:28:55.888Z,20.11
2019-04-04T08:29:55.878Z,19.95
2019-04-04T08:30:55.860Z,19.83
2019-04-04T08:31:55.864Z,19.77
2019-04-04T08:32:55.916Z,19.63
2019-04-04T08:33:55.878Z,19.5
2019-04-04T08:34:55.889Z,19.29
2019-04-04T08:36:07.645Z,19.19
2019-04-04T08:36:55.894Z,19
2019-04-04T08:37:55.931Z,18.91
2019-04-04T08:38:55.892Z,18.81
2019-04-04T08:39:55.854Z,18.8
2019-04-04T08:40:55.887Z,18.66
2019-04-04T08:41:57.085Z,18.58
2019-04-04T08:42:55.874Z,18.47
2019-04-04T08:43:55.841Z,18.47
2019-04-04T08:44:55.842Z,18.48
2019-04-04T08:45:55.851Z,18.47
2019-04-04T08:46:58.068Z,18.41
2019-04-04T08:47:55.863Z,18.32
2019-04-04T08:48:55.886Z,18.33
2019-04-04T08:49:55.846Z,18.41
2019-04-04T08:50:55.854Z,18.32
2019-04-04T08:51:55.813Z,18.27
2019-04-04T08:52:55.840Z,18.3
2019-04-04T08:53:55.811Z,18.33
2019-04-04T08:54:55.839Z,18.21
2019-04-04T08:55:55.799Z,18.08
2019-04-04T08:56:55.827Z,18.02
2019-04-04T08:57:55.807Z,17.97
2019-04-04T08:58:56.658Z,17.95
2019-04-04T08:59:55.788Z,17.9
2019-04-04T09:00:55.791Z,17.86
2019-04-04T09:01:55.795Z,17.93
2019-04-04T09:02:55.877Z,17.89
2019-04-04T09:03:55.806Z,17.92
2019-04-04T09:04:55.768Z,17.93
2019-04-04T09:05:55.777Z,17.87
2019-04-04T09:06:55.595Z,17.95
2019-04-04T09:07:55.852Z,17.84
2019-04-04T09:08:55.756Z,17.82
2019-04-04T09:09:56.161Z,17.82
2019-04-04T09:10:55.753Z,17.78
2019-04-04T09:11:55.834Z,17.78
2019-04-04T09:12:55.734Z,17.87
2019-04-04T09:13:55.739Z,17.87
2019-04-04T09:14:55.763Z,17.82
2019-04-04T09:15:55.726Z,17.87
2019-04-04T09:16:55.720Z,17.79
2019-04-04T09:17:55.741Z,17.78
2019-04-04T09:18:55.738Z,17.84
2019-04-04T09:19:55.735Z,17.75
2019-04-04T09:20:55.704Z,17.77
2019-04-04T09:21:55.708Z,17.81
2019-04-04T09:22:55.694Z,17.89
2019-04-04T09:23:55.722Z,17.79
2019-04-04T09:24:55.688Z,17.64
2019-04-04T09:26:07.712Z,17.66
2019-04-04T09:26:55.670Z,17.63
2019-04-04T09:27:55.706Z,17.62
2019-04-04T09:28:55.662Z,17.7
2019-04-04T09:29:55.678Z,17.7
2019-04-04T09:30:55.654Z,17.77
2019-04-04T09:31:55.685Z,17.75
2019-04-04T09:32:55.675Z,17.82
2019-04-04T09:33:55.656Z,17.82
2019-04-04T09:34:55.718Z,17.72
2019-04-04T09:35:55.630Z,17.81
2019-04-04T09:36:55.653Z,17.68
2019-04-04T09:37:55.641Z,17.75
2019-04-04T09:38:55.645Z,17.75
2019-04-04T09:39:55.643Z,17.87
2019-04-04T09:40:55.612Z,17.84
2019-04-04T09:41:55.388Z,17.82
2019-04-04T09:42:55.597Z,17.89
2019-04-04T09:43:55.633Z,17.9
2019-04-04T09:44:55.594Z,17.87
2019-04-04T09:45:55.604Z,17.99
2019-04-04T09:47:07.564Z,18.07
2019-04-04T09:47:55.608Z,18.15
2019-04-04T09:48:55.599Z,18.03
2019-04-04T09:49:55.588Z,18.07
2019-04-04T09:51:55.588Z,18.05
2019-04-04T09:52:55.562Z,17.99
2019-04-04T09:53:58.240Z,17.99
2019-04-04T09:54:55.544Z,17.99
2019-04-04T09:55:55.570Z,18.1
2019-04-04T09:56:55.537Z,18.1
2019-04-04T09:57:55.563Z,18.08
2019-04-04T09:58:57.394Z,18.07
2019-04-04T09:59:55.566Z,18.14
2019-04-04T10:00:55.526Z,18.14
2019-04-04T10:01:55.517Z,18.18
2019-04-04T10:02:55.524Z,18.25
2019-04-04T10:03:55.544Z,18.23
2019-04-04T10:04:55.260Z,18.23
2019-04-04T10:05:56.079Z,18.2
2019-04-04T10:06:55.512Z,18.26
2019-04-04T10:07:55.518Z,18.36
2019-04-04T10:08:55.483Z,18.3
2019-04-04T10:09:55.510Z,18.35
2019-04-04T10:10:55.473Z,18.41
2019-04-04T10:11:55.504Z,18.51
2019-04-04T10:12:55.468Z,18.41
2019-04-04T10:13:55.492Z,18.52
2019-04-04T10:14:55.468Z,18.54
2019-04-04T10:15:55.486Z,18.58
2019-04-04T10:16:55.454Z,18.57
2019-04-04T10:17:55.461Z,18.58
2019-04-04T10:18:55.465Z,18.58
2019-04-04T10:19:55.472Z,18.66
2019-04-04T10:20:55.462Z,18.63
2019-04-04T10:21:55.448Z,18.67
2019-04-04T10:22:55.445Z,18.69
2019-04-04T10:23:55.418Z,18.7
2019-04-04T10:24:55.445Z,18.73
2019-04-04T10:25:55.433Z,18.8
2019-04-04T10:26:55.439Z,18.82
2019-04-04T10:27:55.405Z,18.84
2019-04-04T10:28:56.019Z,18.91
2019-04-04T10:29:55.398Z,18.92
2019-04-04T10:30:55.417Z,18.91
2019-04-04T10:31:55.416Z,18.98
2019-04-04T10:32:55.377Z,19.06
2019-04-04T10:33:55.406Z,19
2019-04-04T10:34:55.384Z,19.07
2019-04-04T10:35:55.399Z,19.02
2019-04-04T10:36:55.400Z,19.07
2019-04-04T10:37:55.364Z,19.04
2019-04-04T10:38:55.372Z,18.98
2019-04-04T10:39:55.356Z,19.04
2019-04-04T10:40:55.378Z,19
2019-04-04T10:41:55.361Z,19
2019-04-04T10:42:55.378Z,18.99
2019-04-04T10:43:55.337Z,19
2019-04-04T10:44:55.369Z,19.02
2019-04-04T10:45:55.328Z,19.02
2019-04-04T10:46:55.339Z,19
2019-04-04T10:47:55.321Z,18.98
2019-04-04T10:48:55.348Z,18.91
2019-04-04T10:49:55.337Z,19.02
2019-04-04T10:50:55.324Z,18.99
2019-04-04T10:51:55.304Z,19.06
2019-04-04T10:52:55.300Z,19.07
2019-04-04T10:53:55.324Z,18.94
2019-04-04T10:54:55.312Z,19.04
2019-04-04T10:55:55.291Z,19.02
2019-04-04T10:56:55.329Z,19.04
2019-04-04T10:57:55.285Z,19.14
2019-04-04T10:58:55.312Z,19.04
2019-04-04T10:59:57.003Z,19.13
2019-04-04T11:00:55.312Z,19.14
2019-04-04T11:01:55.261Z,19.08
2019-04-04T11:02:55.281Z,19.19
2019-04-04T11:03:55.254Z,19.16
2019-04-04T11:04:55.281Z,19.08
2019-04-04T11:05:55.276Z,19.11
2019-04-04T11:06:55.261Z,19.14
2019-04-04T11:07:56.732Z,19.07
2019-04-04T11:08:55.239Z,19.06
2019-04-04T11:09:55.259Z,19.18
2019-04-04T11:10:55.250Z,19.04
2019-04-04T11:11:55.253Z,19.13
2019-04-04T11:12:55.219Z,19.1
2019-04-04T11:13:55.242Z,19.16
2019-04-04T11:14:55.212Z,19.18
2019-04-04T11:15:55.238Z,19.16
2019-04-04T11:16:55.205Z,19.32
2019-04-04T11:17:55.235Z,19.29
2019-04-04T11:18:55.230Z,19.29
2019-04-04T11:19:55.229Z,19.31
2019-04-04T11:20:55.188Z,19.32
2019-04-04T11:21:55.210Z,19.47
2019-04-04T11:22:55.201Z,19.51
2019-04-04T11:23:55.179Z,19.59
2019-04-04T11:24:55.175Z,19.61
2019-04-04T11:25:55.197Z,19.71
2019-04-04T11:26:55.225Z,19.74
2019-04-04T11:27:55.205Z,19.69
2019-04-04T11:28:55.155Z,19.76
2019-04-04T11:29:55.177Z,19.8
2019-04-04T11:30:55.150Z,19.76
2019-04-04T11:31:54.927Z,19.83
2019-04-04T11:32:55.141Z,19.76
2019-04-04T11:33:55.167Z,19.71
2019-04-04T11:34:58.288Z,19.78
2019-04-04T11:35:55.161Z,19.86
2019-04-04T11:36:54.883Z,19.77
2019-04-04T11:37:55.124Z,19.84
2019-04-04T11:38:55.141Z,19.81
2019-04-04T11:39:59.847Z,19.86
2019-04-04T11:40:55.145Z,19.83
2019-04-04T11:41:55.106Z,19.86
2019-04-04T11:42:55.115Z,19.88
2019-04-04T11:43:55.098Z,19.81
2019-04-04T11:44:55.131Z,19.87
2019-04-04T11:45:55.093Z,19.86
2019-04-04T11:46:55.101Z,19.86
2019-04-04T11:47:55.116Z,19.83
2019-04-04T11:48:55.085Z,19.88
2019-04-04T11:49:55.109Z,19.84
2019-04-04T11:50:55.097Z,19.92
2019-04-04T11:51:55.106Z,19.83
2019-04-04T11:52:55.069Z,19.94
2019-04-04T11:53:55.065Z,19.95
2019-04-04T11:54:55.075Z,19.95
2019-04-04T11:55:55.082Z,19.95
2019-04-04T11:56:55.082Z,19.92
2019-04-04T11:57:55.051Z,19.95
2019-04-04T11:58:55.057Z,19.91
2019-04-04T11:59:55.036Z,20.05
2019-04-04T12:00:55.064Z,20.05
2019-04-04T12:01:55.035Z,20.05
2019-04-04T12:02:55.078Z,20.05
2019-04-04T12:03:55.028Z,20.05
2019-04-04T12:04:57.623Z,20.13
2019-04-04T12:05:54.783Z,20.17
2019-04-04T12:06:55.029Z,20.05
2019-04-04T12:07:55.021Z,20.17
2019-04-04T12:08:55.060Z,20.18
2019-04-04T12:10:06.659Z,20.18
2019-04-04T12:10:55.015Z,20.16
2019-04-04T12:11:54.994Z,20.23
2019-04-04T12:12:55.027Z,20.24
2019-04-04T12:13:55.444Z,20.23
2019-04-04T12:14:54.997Z,20.32
2019-04-04T12:15:54.981Z,20.31
2019-04-04T12:16:54.759Z,20.38
2019-04-04T12:17:54.981Z,20.38
2019-04-04T12:18:55.010Z,20.33
2019-04-04T12:19:54.965Z,20.35
2019-04-04T12:20:54.997Z,20.38
2019-04-04T12:21:54.959Z,20.47
2019-04-04T12:22:54.990Z,20.55
2019-04-04T12:23:56.366Z,20.52
2019-04-04T12:24:54.984Z,20.58
2019-04-04T12:25:54.992Z,20.73
2019-04-04T12:26:54.970Z,20.73
2019-04-04T12:27:54.943Z,20.73
2019-04-04T12:28:54.932Z,20.8
2019-04-04T12:29:54.961Z,20.82
2019-04-04T12:30:54.946Z,20.94
2019-04-04T12:31:54.958Z,20.92
2019-04-04T12:32:54.926Z,20.99
2019-04-04T12:33:54.970Z,21.01
2019-04-04T12:34:54.917Z,20.98
2019-04-04T12:35:57.000Z,21.03
2019-04-04T12:36:54.908Z,21.04
2019-04-04T12:37:54.945Z,21.12
2019-04-04T12:38:54.924Z,21.01
2019-04-04T12:39:54.901Z,21.16
2019-04-04T12:40:54.940Z,21.17
2019-04-04T12:41:54.920Z,21.24
2019-04-04T12:42:54.906Z,21.14
2019-04-04T12:43:54.933Z,21.35
2019-04-04T12:44:54.885Z,21.34
2019-04-04T12:45:55.248Z,21.37
2019-04-04T12:46:55.047Z,21.4
2019-04-04T12:47:54.910Z,21.4
2019-04-04T12:48:54.883Z,21.49
2019-04-04T12:49:54.904Z,21.44
2019-04-04T12:50:54.879Z,21.58
2019-04-04T12:51:54.897Z,21.65
2019-04-04T12:52:54.862Z,21.59
2019-04-04T12:53:54.954Z,21.64
2019-04-04T12:54:54.870Z,21.64
2019-04-04T12:55:56.711Z,21.71
2019-04-04T12:56:54.857Z,21.67
2019-04-04T12:57:54.860Z,21.61
2019-04-04T12:58:54.858Z,21.65
2019-04-04T12:59:54.872Z,21.61
2019-04-04T13:00:54.874Z,21.61
2019-04-04T13:01:54.858Z,21.56